sensor_id;sensor_type;location;lat;lon;timestamp;pressure;altitude;pressure_sealevel;temperature;humidity
46007;BME280;31738;50.188;8.524;2024-01-30T00:01:50;100117.53;;;5.54;83.60
46007;BME280;31738;50.188;8.524;2024-01-30T00:04:16;100115.91;;;5.53;83.60
46007;BME280;31738;50.188;8.524;2024-01-30T00:06:43;100116.69;;;5.54;83.64
46007;BME280;31738;50.188;8.524;2024-01-30T00:09:08;100115.06;;;5.53;83.56
46007;BME280;31738;50.188;8.524;2024-01-30T00:11:35;100120.41;;;5.53;83.71
46007;BME280;31738;50.188;8.524;2024-01-30T00:14:00;100121.84;;;5.49;83.58
46007;BME280;31738;50.188;8.524;2024-01-30T00:16:27;100112.22;;;5.48;83.58
46007;BME280;31738;50.188;8.524;2024-01-30T00:18:53;100112.41;;;5.46;83.99
46007;BME280;31738;50.188;8.524;2024-01-30T00:21:19;100112.63;;;5.45;83.95
46007;BME280;31738;50.188;8.524;2024-01-30T00:23:45;100112.63;;;5.45;83.74
46007;BME280;31738;50.188;8.524;2024-01-30T00:26:11;100113.44;;;5.45;84.07
46007;BME280;31738;50.188;8.524;2024-01-30T00:28:43;100117.56;;;5.41;83.75
46007;BME280;31738;50.188;8.524;2024-01-30T00:31:09;100114.69;;;5.36;83.82
46007;BME280;31738;50.188;8.524;2024-01-30T00:33:38;100106.28;;;5.32;83.60
46007;BME280;31738;50.188;8.524;2024-01-30T00:36:05;100114.28;;;5.32;83.71
46007;BME280;31738;50.188;8.524;2024-01-30T00:38:30;100111.41;;;5.27;83.87
46007;BME280;31738;50.188;8.524;2024-01-30T00:40:56;100109.78;;;5.26;83.85
46007;BME280;31738;50.188;8.524;2024-01-30T00:43:21;100109.16;;;5.24;83.79
46007;BME280;31738;50.188;8.524;2024-01-30T00:45:47;100104.25;;;5.21;84.12
46007;BME280;31738;50.188;8.524;2024-01-30T00:48:12;100107.31;;;5.18;84.19
46007;BME280;31738;50.188;8.524;2024-01-30T00:50:38;100103.22;;;5.16;84.04
46007;BME280;31738;50.188;8.524;2024-01-30T00:53:03;100107.72;;;5.15;83.94
46007;BME280;31738;50.188;8.524;2024-01-30T00:55:29;100112.63;;;5.12;84.33
46007;BME280;31738;50.188;8.524;2024-01-30T00:57:54;100120.59;;;5.12;83.93
46007;BME280;31738;50.188;8.524;2024-01-30T01:00:20;100124.50;;;5.09;84.28
46007;BME280;31738;50.188;8.524;2024-01-30T01:02:46;100118.34;;;5.09;84.36
46007;BME280;31738;50.188;8.524;2024-01-30T01:05:11;100115.09;;;5.07;83.90
46007;BME280;31738;50.188;8.524;2024-01-30T01:07:37;100116.94;;;5.06;84.30
46007;BME280;31738;50.188;8.524;2024-01-30T01:10:03;100118.16;;;5.04;84.39
46007;BME280;31738;50.188;8.524;2024-01-30T01:12:29;100115.50;;;5.04;84.47
46007;BME280;31738;50.188;8.524;2024-01-30T01:14:54;100104.03;;;5.03;84.22
46007;BME280;31738;50.188;8.524;2024-01-30T01:17:20;100117.13;;;5.05;84.62
46007;BME280;31738;50.188;8.524;2024-01-30T01:19:45;100117.13;;;5.05;84.10
46007;BME280;31738;50.188;8.524;2024-01-30T01:22:11;100111.00;;;5.04;84.53
46007;BME280;31738;50.188;8.524;2024-01-30T01:24:36;100112.03;;;5.03;84.65
46007;BME280;31738;50.188;8.524;2024-01-30T01:27:02;100111.41;;;5.01;84.54
46007;BME280;31738;50.188;8.524;2024-01-30T01:29:28;100111.41;;;5.01;84.59
46007;BME280;31738;50.188;8.524;2024-01-30T01:31:56;100112.66;;;5.05;84.25
46007;BME280;31738;50.188;8.524;2024-01-30T01:34:22;100105.06;;;5.02;84.92
46007;BME280;31738;50.188;8.524;2024-01-30T01:36:48;100113.06;;;5.02;84.23
46007;BME280;31738;50.188;8.524;2024-01-30T01:39:13;100099.97;;;5.01;84.75
46007;BME280;31738;50.188;8.524;2024-01-30T01:41:38;100101.16;;;4.98;84.21
46007;BME280;31738;50.188;8.524;2024-01-30T01:44:04;100101.16;;;4.98;84.70
46007;BME280;31738;50.188;8.524;2024-01-30T01:46:32;100090.53;;;4.98;84.24
46007;BME280;31738;50.188;8.524;2024-01-30T01:48:58;100097.91;;;4.96;84.75
46007;BME280;31738;50.188;8.524;2024-01-30T01:51:27;100095.47;;;4.95;84.43
46007;BME280;31738;50.188;8.524;2024-01-30T01:53:54;100099.94;;;4.94;84.44
46007;BME280;31738;50.188;8.524;2024-01-30T01:56:20;100101.78;;;4.94;84.64
46007;BME280;31738;50.188;8.524;2024-01-30T01:58:47;100095.66;;;4.93;84.68
46007;BME280;31738;50.188;8.524;2024-01-30T02:01:13;100092.38;;;4.91;84.92
46007;BME280;31738;50.188;8.524;2024-01-30T02:03:39;100088.09;;;4.90;84.93
46007;BME280;31738;50.188;8.524;2024-01-30T02:06:06;100088.50;;;4.87;84.70
46007;BME280;31738;50.188;8.524;2024-01-30T02:08:31;100081.75;;;4.85;84.65
46007;BME280;31738;50.188;8.524;2024-01-30T02:10:57;100090.53;;;4.85;84.72
46007;BME280;31738;50.188;8.524;2024-01-30T02:13:23;100076.81;;;4.82;84.87
46007;BME280;31738;50.188;8.524;2024-01-30T02:15:52;100087.66;;;4.80;84.76
46007;BME280;31738;50.188;8.524;2024-01-30T02:18:19;100086.25;;;4.78;84.60
46007;BME280;31738;50.188;8.524;2024-01-30T02:20:53;100082.13;;;4.75;84.89
46007;BME280;31738;50.188;8.524;2024-01-30T02:23:19;100076.22;;;4.73;84.45
46007;BME280;31738;50.188;8.524;2024-01-30T02:25:45;100079.69;;;4.74;85.18
46007;BME280;31738;50.188;8.524;2024-01-30T02:28:11;100076.22;;;4.73;84.66
46007;BME280;31738;50.188;8.524;2024-01-30T02:30:38;100080.72;;;4.73;85.25
46007;BME280;31738;50.188;8.524;2024-01-30T02:37:10;100087.22;;;4.57;85.00
46007;BME280;31738;50.188;8.524;2024-01-30T02:39:35;100078.22;;;4.58;85.27
46007;BME280;31738;50.188;8.524;2024-01-30T02:42:01;100074.56;;;4.59;84.91
46007;BME280;31738;50.188;8.524;2024-01-30T02:44:26;100085.19;;;4.59;84.97
46007;BME280;31738;50.188;8.524;2024-01-30T02:46:52;100071.91;;;4.59;84.60
46007;BME280;31738;50.188;8.524;2024-01-30T02:49:19;100081.50;;;4.60;84.58
46007;BME280;31738;50.188;8.524;2024-01-30T02:51:45;100079.88;;;4.59;84.76
46007;BME280;31738;50.188;8.524;2024-01-30T02:54:10;100078.22;;;4.58;84.81
46007;BME280;31738;50.188;8.524;2024-01-30T02:56:36;100077.41;;;4.58;84.70
46007;BME280;31738;50.188;8.524;2024-01-30T02:59:01;100071.28;;;4.57;85.11
46007;BME280;31738;50.188;8.524;2024-01-30T03:01:27;100068.81;;;4.56;85.51
46007;BME280;31738;50.188;8.524;2024-01-30T03:03:52;100067.00;;;4.56;85.03
46007;BME280;31738;50.188;8.524;2024-01-30T03:06:18;100070.66;;;4.55;85.18
46007;BME280;31738;50.188;8.524;2024-01-30T03:08:45;100069.03;;;4.54;85.63
46007;BME280;31738;50.188;8.524;2024-01-30T03:11:11;100066.38;;;4.54;84.96
46007;BME280;31738;50.188;8.524;2024-01-30T03:13:36;100075.38;;;4.53;84.89
46007;BME280;31738;50.188;8.524;2024-01-30T03:16:02;100075.38;;;4.53;85.77
46007;BME280;31738;50.188;8.524;2024-01-30T03:18:28;100065.53;;;4.54;85.42
46007;BME280;31738;50.188;8.524;2024-01-30T03:20:53;100064.75;;;4.53;85.04
46007;BME280;31738;50.188;8.524;2024-01-30T03:23:19;100062.88;;;4.54;85.36
46007;BME280;31738;50.188;8.524;2024-01-30T03:25:44;100071.28;;;4.57;85.24
46007;BME280;31738;50.188;8.524;2024-01-30T03:28:09;100059.44;;;4.53;85.54
46007;BME280;31738;50.188;8.524;2024-01-30T03:30:35;100064.75;;;4.53;85.58
46007;BME280;31738;50.188;8.524;2024-01-30T03:33:00;100067.41;;;4.53;84.98
46007;BME280;31738;50.188;8.524;2024-01-30T03:35:26;100066.56;;;4.53;85.59
46007;BME280;31738;50.188;8.524;2024-01-30T03:37:51;100075.78;;;4.50;85.51
46007;BME280;31738;50.188;8.524;2024-01-30T03:40:17;100075.78;;;4.50;85.74
46007;BME280;31738;50.188;8.524;2024-01-30T03:42:42;100077.59;;;4.50;85.04
46007;BME280;31738;50.188;8.524;2024-01-30T03:45:08;100074.94;;;4.50;85.38
46007;BME280;31738;50.188;8.524;2024-01-30T03:47:34;100077.41;;;4.51;85.47
46007;BME280;31738;50.188;8.524;2024-01-30T03:49:59;100069.22;;;4.53;85.34
46007;BME280;31738;50.188;8.524;2024-01-30T03:52:25;100072.09;;;4.51;85.59
46007;BME280;31738;50.188;8.524;2024-01-30T03:54:50;100074.13;;;4.49;85.58
46007;BME280;31738;50.188;8.524;2024-01-30T03:57:16;100067.38;;;4.47;85.84
46007;BME280;31738;50.188;8.524;2024-01-30T03:59:42;100069.22;;;4.46;85.66
46007;BME280;31738;50.188;8.524;2024-01-30T04:02:07;100067.16;;;4.42;85.53
46007;BME280;31738;50.188;8.524;2024-01-30T04:04:33;100079.00;;;4.39;85.60
46007;BME280;31738;50.188;8.524;2024-01-30T04:06:58;100070.81;;;4.34;85.93
46007;BME280;31738;50.188;8.524;2024-01-30T04:09:24;100066.94;;;4.30;85.55
46007;BME280;31738;50.188;8.524;2024-01-30T04:11:51;100074.28;;;4.28;86.02
46007;BME280;31738;50.188;8.524;2024-01-30T04:14:17;100075.69;;;4.24;85.89
46007;BME280;31738;50.188;8.524;2024-01-30T04:16:42;100074.88;;;4.24;85.77
46007;BME280;31738;50.188;8.524;2024-01-30T04:19:08;100065.47;;;4.21;86.15
46007;BME280;31738;50.188;8.524;2024-01-30T04:21:33;100070.78;;;4.21;85.70
46007;BME280;31738;50.188;8.524;2024-01-30T04:23:59;100059.34;;;4.21;86.44
46007;BME280;31738;50.188;8.524;2024-01-30T04:26:24;100054.88;;;4.21;86.37
46007;BME280;31738;50.188;8.524;2024-01-30T04:28:50;100058.09;;;4.23;85.77
46007;BME280;31738;50.188;8.524;2024-01-30T04:31:15;100053.44;;;4.25;86.36
46007;BME280;31738;50.188;8.524;2024-01-30T04:33:41;100048.53;;;4.29;85.97
46007;BME280;31738;50.188;8.524;2024-01-30T04:36:08;100043.03;;;4.30;86.32
46007;BME280;31738;50.188;8.524;2024-01-30T04:38:35;100054.44;;;4.31;86.34
46007;BME280;31738;50.188;8.524;2024-01-30T04:41:01;100049.13;;;4.31;86.40
46007;BME280;31738;50.188;8.524;2024-01-30T04:43:26;100052.00;;;4.29;86.13
46007;BME280;31738;50.188;8.524;2024-01-30T04:45:52;100053.84;;;4.29;85.96
46007;BME280;31738;50.188;8.524;2024-01-30T04:48:18;100049.53;;;4.28;85.73
46007;BME280;31738;50.188;8.524;2024-01-30T04:50:43;100048.75;;;4.27;85.99
46007;BME280;31738;50.188;8.524;2024-01-30T04:53:09;100052.41;;;4.26;85.97
46007;BME280;31738;50.188;8.524;2024-01-30T04:55:35;100059.38;;;4.27;85.99
46007;BME280;31738;50.188;8.524;2024-01-30T04:58:01;100049.53;;;4.28;86.33
46007;BME280;31738;50.188;8.524;2024-01-30T05:00:27;100047.72;;;4.28;86.17
46007;BME280;31738;50.188;8.524;2024-01-30T05:02:54;100057.31;;;4.29;86.18
46007;BME280;31738;50.188;8.524;2024-01-30T05:05:20;100056.91;;;4.32;86.25
46007;BME280;31738;50.188;8.524;2024-01-30T05:07:47;100064.72;;;4.34;86.23
46007;BME280;31738;50.188;8.524;2024-01-30T05:10:12;100062.66;;;4.36;86.54
46007;BME280;31738;50.188;8.524;2024-01-30T05:12:39;100061.84;;;4.35;86.69
46007;BME280;31738;50.188;8.524;2024-01-30T05:15:05;100067.16;;;4.35;86.01
46007;BME280;31738;50.188;8.524;2024-01-30T05:17:30;100067.75;;;4.37;86.51
46007;BME280;31738;50.188;8.524;2024-01-30T05:19:56;100072.28;;;4.37;86.26
46007;BME280;31738;50.188;8.524;2024-01-30T05:22:21;100077.78;;;4.35;86.02
46007;BME280;31738;50.188;8.524;2024-01-30T05:24:47;100069.19;;;4.33;86.53
46007;BME280;31738;50.188;8.524;2024-01-30T05:27:12;100078.16;;;4.32;86.12
46007;BME280;31738;50.188;8.524;2024-01-30T05:29:39;100064.28;;;4.30;85.94
46007;BME280;31738;50.188;8.524;2024-01-30T05:32:05;100070.59;;;4.29;86.34
46007;BME280;31738;50.188;8.524;2024-01-30T05:34:31;100071.63;;;4.28;85.96
46007;BME280;31738;50.188;8.524;2024-01-30T05:36:56;100080.63;;;4.27;86.17
46007;BME280;31738;50.188;8.524;2024-01-30T05:39:22;100077.31;;;4.25;86.13
46007;BME280;31738;50.188;8.524;2024-01-30T05:41:47;100075.69;;;4.24;86.77
46007;BME280;31738;50.188;8.524;2024-01-30T05:44:13;100076.09;;;4.21;86.59
46007;BME280;31738;50.188;8.524;2024-01-30T05:46:38;100078.13;;;4.19;86.18
46007;BME280;31738;50.188;8.524;2024-01-30T05:49:04;100083.84;;;4.16;86.05
46007;BME280;31738;50.188;8.524;2024-01-30T05:51:29;100080.56;;;4.14;86.46
46007;BME280;31738;50.188;8.524;2024-01-30T05:53:55;100076.66;;;4.10;86.87
46007;BME280;31738;50.188;8.524;2024-01-30T05:56:20;100086.66;;;4.08;86.23
46007;BME280;31738;50.188;8.524;2024-01-30T05:58:46;100086.22;;;4.05;86.77
46007;BME280;31738;50.188;8.524;2024-01-30T06:01:11;100087.25;;;4.04;86.50
46007;BME280;31738;50.188;8.524;2024-01-30T06:03:37;100081.50;;;4.00;86.05
46007;BME280;31738;50.188;8.524;2024-01-30T06:06:04;100083.56;;;3.98;86.88
46007;BME280;31738;50.188;8.524;2024-01-30T06:08:29;100078.66;;;3.95;86.54
46007;BME280;31738;50.188;8.524;2024-01-30T06:10:55;100100.09;;;3.94;87.05
46007;BME280;31738;50.188;8.524;2024-01-30T06:13:20;100092.31;;;3.92;86.93
46007;BME280;31738;50.188;8.524;2024-01-30T06:15:46;100087.41;;;3.89;86.97
46007;BME280;31738;50.188;8.524;2024-01-30T06:18:11;100087.59;;;3.88;86.57
46007;BME280;31738;50.188;8.524;2024-01-30T06:20:37;100093.13;;;3.86;86.70
46007;BME280;31738;50.188;8.524;2024-01-30T06:23:02;100088.19;;;3.83;86.56
46007;BME280;31738;50.188;8.524;2024-01-30T06:25:28;100090.84;;;3.83;86.91
46007;BME280;31738;50.188;8.524;2024-01-30T06:27:54;100083.69;;;3.84;87.15
46007;BME280;31738;50.188;8.524;2024-01-30T06:30:19;100083.88;;;3.82;86.53
46007;BME280;31738;50.188;8.524;2024-01-30T06:32:45;100088.41;;;3.82;86.38
46007;BME280;31738;50.188;8.524;2024-01-30T06:35:10;100079.81;;;3.80;86.37
46007;BME280;31738;50.188;8.524;2024-01-30T06:37:36;100084.28;;;3.79;86.49
46007;BME280;31738;50.188;8.524;2024-01-30T06:40:02;100082.47;;;3.80;86.47
46007;BME280;31738;50.188;8.524;2024-01-30T06:42:30;100078.97;;;3.79;86.73
46007;BME280;31738;50.188;8.524;2024-01-30T06:44:55;100077.34;;;3.78;86.55
46007;BME280;31738;50.188;8.524;2024-01-30T06:47:21;100077.97;;;3.80;86.90
46007;BME280;31738;50.188;8.524;2024-01-30T06:49:46;100079.59;;;3.81;86.30
46007;BME280;31738;50.188;8.524;2024-01-30T06:52:12;100087.56;;;3.81;86.52
46007;BME280;31738;50.188;8.524;2024-01-30T06:54:37;100084.91;;;3.81;86.56
46007;BME280;31738;50.188;8.524;2024-01-30T06:57:03;100083.28;;;3.80;86.73
46007;BME280;31738;50.188;8.524;2024-01-30T06:59:28;100093.50;;;3.83;86.69
46007;BME280;31738;50.188;8.524;2024-01-30T07:01:54;100082.06;;;3.83;86.72
46007;BME280;31738;50.188;8.524;2024-01-30T07:04:19;100086.16;;;3.85;86.84
46007;BME280;31738;50.188;8.524;2024-01-30T07:06:45;100085.75;;;3.88;86.83
46007;BME280;31738;50.188;8.524;2024-01-30T07:09:11;100082.69;;;3.91;86.50
46007;BME280;31738;50.188;8.524;2024-01-30T07:11:37;100088.63;;;3.93;86.53
46007;BME280;31738;50.188;8.524;2024-01-30T07:14:02;100079.66;;;3.94;87.13
46007;BME280;31738;50.188;8.524;2024-01-30T07:16:31;100086.63;;;3.95;87.10
46007;BME280;31738;50.188;8.524;2024-01-30T07:18:56;100082.09;;;3.96;86.67
46007;BME280;31738;50.188;8.524;2024-01-30T07:21:22;100080.91;;;3.98;86.86
46007;BME280;31738;50.188;8.524;2024-01-30T07:23:56;100079.88;;;3.99;86.96
46007;BME280;31738;50.188;8.524;2024-01-30T07:26:21;100080.53;;;4.01;86.77
46007;BME280;31738;50.188;8.524;2024-01-30T07:28:47;100090.09;;;4.02;86.95
46007;BME280;31738;50.188;8.524;2024-01-30T07:31:12;100085.44;;;4.04;86.72
46007;BME280;31738;50.188;8.524;2024-01-30T07:33:38;100088.88;;;4.05;86.93
46007;BME280;31738;50.188;8.524;2024-01-30T07:36:03;100083.41;;;4.06;87.35
46007;BME280;31738;50.188;8.524;2024-01-30T07:38:31;100091.16;;;4.08;86.58
46007;BME280;31738;50.188;8.524;2024-01-30T07:40:57;100089.94;;;4.10;86.67
46007;BME280;31738;50.188;8.524;2024-01-30T07:43:22;100084.22;;;4.13;87.00
46007;BME280;31738;50.188;8.524;2024-01-30T07:45:48;100082.22;;;4.15;86.61
46007;BME280;31738;50.188;8.524;2024-01-30T07:48:13;100083.63;;;4.18;87.09
46007;BME280;31738;50.188;8.524;2024-01-30T07:50:39;100080.59;;;4.21;86.80
46007;BME280;31738;50.188;8.524;2024-01-30T07:53:04;100084.66;;;4.23;87.31
46007;BME280;31738;50.188;8.524;2024-01-30T07:55:30;100085.09;;;4.27;87.02
46007;BME280;31738;50.188;8.524;2024-01-30T07:57:57;100083.88;;;4.29;87.30
46007;BME280;31738;50.188;8.524;2024-01-30T08:00:22;100086.13;;;4.32;87.12
46007;BME280;31738;50.188;8.524;2024-01-30T08:02:48;100088.78;;;4.32;86.58
46007;BME280;31738;50.188;8.524;2024-01-30T08:05:14;100093.72;;;4.35;87.26
46007;BME280;31738;50.188;8.524;2024-01-30T08:07:41;100096.97;;;4.37;87.34
46007;BME280;31738;50.188;8.524;2024-01-30T08:10:08;100092.09;;;4.41;87.20
46007;BME280;31738;50.188;8.524;2024-01-30T08:12:33;100102.50;;;4.42;87.15
46007;BME280;31738;50.188;8.524;2024-01-30T08:14:59;100106.41;;;4.46;87.08
46007;BME280;31738;50.188;8.524;2024-01-30T08:17:24;100095.38;;;4.49;87.46
46007;BME280;31738;50.188;8.524;2024-01-30T08:19:50;100100.91;;;4.54;87.20
46007;BME280;31738;50.188;8.524;2024-01-30T08:22:15;100094.16;;;4.58;87.63
46007;BME280;31738;50.188;8.524;2024-01-30T08:24:41;100092.97;;;4.61;87.07
46007;BME280;31738;50.188;8.524;2024-01-30T08:27:07;100098.28;;;4.67;87.71
46007;BME280;31738;50.188;8.524;2024-01-30T08:29:35;100092.56;;;4.70;87.67
46007;BME280;31738;50.188;8.524;2024-01-30T08:32:01;100087.25;;;4.77;86.97
46007;BME280;31738;50.188;8.524;2024-01-30T08:34:26;100083.19;;;4.81;87.60
46007;BME280;31738;50.188;8.524;2024-01-30T08:36:52;100093.00;;;4.87;87.24
46007;BME280;31738;50.188;8.524;2024-01-30T08:39:18;100080.72;;;4.92;87.53
46007;BME280;31738;50.188;8.524;2024-01-30T08:41:43;100084.41;;;4.98;87.23
46007;BME280;31738;50.188;8.524;2024-01-30T08:44:09;100083.41;;;5.05;87.30
46007;BME280;31738;50.188;8.524;2024-01-30T08:46:36;100086.03;;;5.12;87.51
46007;BME280;31738;50.188;8.524;2024-01-30T08:49:02;100095.06;;;5.17;87.50
46007;BME280;31738;50.188;8.524;2024-01-30T08:51:29;100089.75;;;5.24;87.48
46007;BME280;31738;50.188;8.524;2024-01-30T08:53:54;100087.25;;;5.29;87.71
46007;BME280;31738;50.188;8.524;2024-01-30T08:56:20;100090.13;;;5.34;87.74
46007;BME280;31738;50.188;8.524;2024-01-30T08:58:45;100094.81;;;5.39;87.59
46007;BME280;31738;50.188;8.524;2024-01-30T09:01:11;100096.06;;;5.43;87.87
46007;BME280;31738;50.188;8.524;2024-01-30T09:03:36;100089.28;;;5.47;87.78
46007;BME280;31738;50.188;8.524;2024-01-30T09:06:10;100090.28;;;5.52;87.61
46007;BME280;31738;50.188;8.524;2024-01-30T09:08:36;100085.59;;;5.54;88.17
46007;BME280;31738;50.188;8.524;2024-01-30T09:11:08;100084.97;;;5.59;87.86
46007;BME280;31738;50.188;8.524;2024-01-30T09:13:33;100081.91;;;5.62;87.78
46007;BME280;31738;50.188;8.524;2024-01-30T09:15:59;100085.75;;;5.66;87.98
46007;BME280;31738;50.188;8.524;2024-01-30T09:18:24;100101.13;;;5.70;87.96
46007;BME280;31738;50.188;8.524;2024-01-30T09:20:50;100094.56;;;5.73;87.84
46007;BME280;31738;50.188;8.524;2024-01-30T09:23:15;100092.09;;;5.78;88.07
46007;BME280;31738;50.188;8.524;2024-01-30T09:25:42;100104.00;;;5.82;87.91
46007;BME280;31738;50.188;8.524;2024-01-30T09:28:08;100093.53;;;5.87;87.97
46007;BME280;31738;50.188;8.524;2024-01-30T09:30:34;100101.91;;;5.90;87.90
46007;BME280;31738;50.188;8.524;2024-01-30T09:32:59;100101.09;;;5.96;88.08
46007;BME280;31738;50.188;8.524;2024-01-30T09:35:25;100097.81;;;6.01;87.95
46007;BME280;31738;50.188;8.524;2024-01-30T09:37:50;100096.34;;;6.05;88.15
46007;BME280;31738;50.188;8.524;2024-01-30T09:40:17;100086.88;;;6.09;88.00
46007;BME280;31738;50.188;8.524;2024-01-30T09:42:46;100088.72;;;6.15;87.98
46007;BME280;31738;50.188;8.524;2024-01-30T09:45:14;100096.91;;;6.20;88.14
46007;BME280;31738;50.188;8.524;2024-01-30T09:47:41;100101.38;;;6.26;88.06
46007;BME280;31738;50.188;8.524;2024-01-30T09:50:09;100098.47;;;6.34;88.55
46007;BME280;31738;50.188;8.524;2024-01-30T09:52:35;100105.63;;;6.40;87.95
46007;BME280;31738;50.188;8.524;2024-01-30T09:55:00;100101.06;;;6.47;87.72
46007;BME280;31738;50.188;8.524;2024-01-30T09:57:26;100096.94;;;6.51;87.78
46007;BME280;31738;50.188;8.524;2024-01-30T09:59:52;100091.81;;;6.56;88.25
46007;BME280;31738;50.188;8.524;2024-01-30T10:02:19;100097.28;;;6.61;87.68
46007;BME280;31738;50.188;8.524;2024-01-30T10:04:48;100088.88;;;6.64;87.99
46007;BME280;31738;50.188;8.524;2024-01-30T10:07:14;100095.41;;;6.68;88.07
46007;BME280;31738;50.188;8.524;2024-01-30T10:09:39;100102.78;;;6.72;87.52
46007;BME280;31738;50.188;8.524;2024-01-30T10:12:05;100104.78;;;6.77;87.93
46007;BME280;31738;50.188;8.524;2024-01-30T10:14:31;100097.19;;;6.80;87.97
46007;BME280;31738;50.188;8.524;2024-01-30T10:16:57;100096.53;;;6.85;87.38
46007;BME280;31738;50.188;8.524;2024-01-30T10:19:23;100092.41;;;6.89;87.76
46007;BME280;31738;50.188;8.524;2024-01-30T10:21:49;100098.91;;;6.93;87.70
46007;BME280;31738;50.188;8.524;2024-01-30T10:24:14;100090.50;;;6.96;87.30
46007;BME280;31738;50.188;8.524;2024-01-30T10:26:40;100091.09;;;6.98;87.09
46007;BME280;31738;50.188;8.524;2024-01-30T10:29:05;100089.03;;;7.00;87.58
46007;BME280;31738;50.188;8.524;2024-01-30T10:31:31;100084.28;;;7.02;87.14
46007;BME280;31738;50.188;8.524;2024-01-30T10:33:56;100088.59;;;7.03;87.36
46007;BME280;31738;50.188;8.524;2024-01-30T10:36:28;100086.56;;;7.05;87.30
46007;BME280;31738;50.188;8.524;2024-01-30T10:38:55;100088.16;;;7.06;86.86
46007;BME280;31738;50.188;8.524;2024-01-30T10:41:26;100088.78;;;7.08;86.96
46007;BME280;31738;50.188;8.524;2024-01-30T10:44:03;100081.97;;;7.12;87.24
46007;BME280;31738;50.188;8.524;2024-01-30T10:46:33;100091.00;;;7.11;87.35
46007;BME280;31738;50.188;8.524;2024-01-30T10:49:00;100091.00;;;7.11;86.69
46007;BME280;31738;50.188;8.524;2024-01-30T10:51:27;100093.81;;;7.16;87.15
46007;BME280;31738;50.188;8.524;2024-01-30T10:53:53;100104.06;;;7.19;87.10
46007;BME280;31738;50.188;8.524;2024-01-30T10:56:22;100100.94;;;7.22;86.46
46007;BME280;31738;50.188;8.524;2024-01-30T10:58:52;100101.13;;;7.27;86.65
46007;BME280;31738;50.188;8.524;2024-01-30T11:01:19;100101.28;;;7.32;86.68
46007;BME280;31738;50.188;8.524;2024-01-30T11:03:45;100093.69;;;7.36;86.31
46007;BME280;31738;50.188;8.524;2024-01-30T11:06:11;100095.69;;;7.40;86.86
46007;BME280;31738;50.188;8.524;2024-01-30T11:08:39;100094.41;;;7.43;86.74
46007;BME280;31738;50.188;8.524;2024-01-30T11:11:08;100109.78;;;7.47;86.47
46007;BME280;31738;50.188;8.524;2024-01-30T11:13:34;100094.38;;;7.49;86.40
46007;BME280;31738;50.188;8.524;2024-01-30T11:16:01;100092.06;;;7.53;85.92
46007;BME280;31738;50.188;8.524;2024-01-30T11:18:31;100087.91;;;7.57;86.08
46007;BME280;31738;50.188;8.524;2024-01-30T11:20:58;100103.28;;;7.61;86.24
46007;BME280;31738;50.188;8.524;2024-01-30T11:23:25;100095.44;;;7.66;85.83
46007;BME280;31738;50.188;8.524;2024-01-30T11:25:52;100085.94;;;7.70;86.13
46007;BME280;31738;50.188;8.524;2024-01-30T11:28:18;100084.22;;;7.76;85.36
46007;BME280;31738;50.188;8.524;2024-01-30T11:30:44;100094.84;;;7.82;85.98
46007;BME280;31738;50.188;8.524;2024-01-30T11:33:12;100082.25;;;7.89;85.38
46007;BME280;31738;50.188;8.524;2024-01-30T11:35:40;100092.47;;;7.92;85.77
46007;BME280;31738;50.188;8.524;2024-01-30T11:38:06;100086.25;;;7.98;85.58
46007;BME280;31738;50.188;8.524;2024-01-30T11:40:33;100074.88;;;8.03;85.56
46007;BME280;31738;50.188;8.524;2024-01-30T11:43:00;100079.09;;;8.10;85.04
46007;BME280;31738;50.188;8.524;2024-01-30T11:45:27;100079.84;;;8.17;84.98
46007;BME280;31738;50.188;8.524;2024-01-30T11:47:53;100081.63;;;8.23;85.10
46007;BME280;31738;50.188;8.524;2024-01-30T11:50:18;100079.47;;;8.32;84.95
46007;BME280;31738;50.188;8.524;2024-01-30T11:52:44;100073.00;;;8.39;84.82
46007;BME280;31738;50.188;8.524;2024-01-30T11:55:10;100073.72;;;8.46;84.52
46007;BME280;31738;50.188;8.524;2024-01-30T11:57:35;100073.78;;;8.58;84.46
46007;BME280;31738;50.188;8.524;2024-01-30T12:00:03;100070.56;;;8.68;84.24
46007;BME280;31738;50.188;8.524;2024-01-30T12:02:36;100072.44;;;8.79;83.97
46007;BME280;31738;50.188;8.524;2024-01-30T12:05:07;100072.47;;;8.90;84.22
46007;BME280;31738;50.188;8.524;2024-01-30T12:07:33;100074.22;;;8.96;83.91
46007;BME280;31738;50.188;8.524;2024-01-30T12:09:59;100081.56;;;9.01;83.68
46007;BME280;31738;50.188;8.524;2024-01-30T12:12:26;100087.75;;;9.01;83.59
46007;BME280;31738;50.188;8.524;2024-01-30T12:14:53;100086.91;;;9.01;83.53
46007;BME280;31738;50.188;8.524;2024-01-30T12:17:30;100092.28;;;9.01;83.11
46007;BME280;31738;50.188;8.524;2024-01-30T12:20:17;100084.94;;;8.96;83.26
46007;BME280;31738;50.188;8.524;2024-01-30T12:22:44;100093.66;;;8.92;82.81
46007;BME280;31738;50.188;8.524;2024-01-30T12:25:11;100087.38;;;8.98;83.01
46007;BME280;31738;50.188;8.524;2024-01-30T12:27:37;100083.19;;;9.02;83.04
46007;BME280;31738;50.188;8.524;2024-01-30T12:30:07;100079.59;;;9.08;82.48
46007;BME280;31738;50.188;8.524;2024-01-30T12:32:51;100080.31;;;9.15;82.97
46007;BME280;31738;50.188;8.524;2024-01-30T12:35:17;100067.97;;;9.14;82.90
46007;BME280;31738;50.188;8.524;2024-01-30T12:37:44;100067.06;;;9.20;82.50
46007;BME280;31738;50.188;8.524;2024-01-30T12:40:11;100075.19;;;9.25;82.49
46007;BME280;31738;50.188;8.524;2024-01-30T12:42:38;100069.38;;;9.28;82.51
46007;BME280;31738;50.188;8.524;2024-01-30T12:45:05;100064.97;;;9.33;82.05
46007;BME280;31738;50.188;8.524;2024-01-30T12:47:31;100069.63;;;9.38;82.12
46007;BME280;31738;50.188;8.524;2024-01-30T12:49:57;100062.28;;;9.45;81.69
46007;BME280;31738;50.188;8.524;2024-01-30T12:52:23;100063.22;;;9.50;81.61
46007;BME280;31738;50.188;8.524;2024-01-30T12:54:49;100065.22;;;9.55;81.95
46007;BME280;31738;50.188;8.524;2024-01-30T12:57:15;100058.09;;;9.60;81.67
46007;BME280;31738;50.188;8.524;2024-01-30T12:59:42;100062.50;;;9.66;81.22